<?xml version="1.0" encoding="UTF-8" standalone="no" ?>
<gpx xmlns="http://www.topografix.com/GPX/1/1" xmlns:xsi="http://www.w3.org/2001/XMLSchema-instance" xsi:schemaLocation="http://www.topografix.com/GPX/1/1 http://www.topografix.com/GPX/1/1/gpx.xsd" version="1.1" creator="VisuGPX - https://www.visugpx.com">
  <metadata>
    <name>Yzeures/Chenevelles</name>
  </metadata>
  <trk>
    <name><![CDATA[12530433-Yzeures/pleumartin N°2]]></name>
    <trkseg>
      <trkpt lat="46.78757" lon="0.8568">
        <ele>64</ele>
        <time>2021-05-19T18:03:56Z</time>
      </trkpt>
      <trkpt lat="46.7878" lon="0.85591">
        <ele>63</ele>
        <time>2021-05-19T18:04:08Z</time>
      </trkpt>
      <trkpt lat="46.78879" lon="0.85634">
        <ele>67</ele>
        <time>2021-05-19T18:04:26Z</time>
      </trkpt>
      <trkpt lat="46.78914" lon="0.85451">
        <ele>65</ele>
        <time>2021-05-19T18:04:49Z</time>
      </trkpt>
      <trkpt lat="46.78917" lon="0.85403">
        <ele>65</ele>
        <time>2021-05-19T18:04:55Z</time>
      </trkpt>
      <trkpt lat="46.78917" lon="0.8529">
        <ele>65</ele>
        <time>2021-05-19T18:05:09Z</time>
      </trkpt>
      <trkpt lat="46.78928" lon="0.85206">
        <ele>64</ele>
        <time>2021-05-19T18:05:19Z</time>
      </trkpt>
      <trkpt lat="46.7894" lon="0.85108">
        <ele>63</ele>
        <time>2021-05-19T18:05:31Z</time>
      </trkpt>
      <trkpt lat="46.78959" lon="0.8501">
        <ele>62</ele>
        <time>2021-05-19T18:05:44Z</time>
      </trkpt>
      <trkpt lat="46.78981" lon="0.84917">
        <ele>62</ele>
        <time>2021-05-19T18:05:56Z</time>
      </trkpt>
      <trkpt lat="46.78988" lon="0.84876">
        <ele>62</ele>
        <time>2021-05-19T18:06:01Z</time>
      </trkpt>
      <trkpt lat="46.78994" lon="0.84729">
        <ele>61</ele>
        <time>2021-05-19T18:06:19Z</time>
      </trkpt>
      <trkpt lat="46.78996" lon="0.84582">
        <ele>60</ele>
        <time>2021-05-19T18:06:37Z</time>
      </trkpt>
      <trkpt lat="46.79009" lon="0.84492">
        <ele>61</ele>
        <time>2021-05-19T18:06:48Z</time>
      </trkpt>
      <trkpt lat="46.79025" lon="0.84385">
        <ele>61</ele>
        <time>2021-05-19T18:07:01Z</time>
      </trkpt>
      <trkpt lat="46.79038" lon="0.84316">
        <ele>59</ele>
        <time>2021-05-19T18:07:10Z</time>
      </trkpt>
      <trkpt lat="46.79057" lon="0.84249">
        <ele>59</ele>
        <time>2021-05-19T18:07:19Z</time>
      </trkpt>
      <trkpt lat="46.7906" lon="0.84213">
        <ele>59</ele>
        <time>2021-05-19T18:07:23Z</time>
      </trkpt>
      <trkpt lat="46.79057" lon="0.84156">
        <ele>59</ele>
        <time>2021-05-19T18:07:30Z</time>
      </trkpt>
      <trkpt lat="46.79041" lon="0.8403">
        <ele>59</ele>
        <time>2021-05-19T18:07:46Z</time>
      </trkpt>
      <trkpt lat="46.79006" lon="0.83841">
        <ele>58</ele>
        <time>2021-05-19T18:08:10Z</time>
      </trkpt>
      <trkpt lat="46.78999" lon="0.83785">
        <ele>59</ele>
        <time>2021-05-19T18:08:17Z</time>
      </trkpt>
      <trkpt lat="46.78993" lon="0.837">
        <ele>60</ele>
        <time>2021-05-19T18:08:27Z</time>
      </trkpt>
      <trkpt lat="46.78988" lon="0.83659">
        <ele>60</ele>
        <time>2021-05-19T18:08:32Z</time>
      </trkpt>
      <trkpt lat="46.78972" lon="0.83569">
        <ele>60</ele>
        <time>2021-05-19T18:08:43Z</time>
      </trkpt>
      <trkpt lat="46.78958" lon="0.83483">
        <ele>60</ele>
        <time>2021-05-19T18:08:54Z</time>
      </trkpt>
      <trkpt lat="46.78947" lon="0.83389">
        <ele>60</ele>
        <time>2021-05-19T18:09:06Z</time>
      </trkpt>
      <trkpt lat="46.78931" lon="0.83302">
        <ele>59</ele>
        <time>2021-05-19T18:09:17Z</time>
      </trkpt>
      <trkpt lat="46.78927" lon="0.83267">
        <ele>60</ele>
        <time>2021-05-19T18:09:21Z</time>
      </trkpt>
      <trkpt lat="46.78927" lon="0.83208">
        <ele>60</ele>
        <time>2021-05-19T18:09:28Z</time>
      </trkpt>
      <trkpt lat="46.78935" lon="0.82979">
        <ele>59</ele>
        <time>2021-05-19T18:09:56Z</time>
      </trkpt>
      <trkpt lat="46.78937" lon="0.82898">
        <ele>59</ele>
        <time>2021-05-19T18:10:06Z</time>
      </trkpt>
      <trkpt lat="46.78947" lon="0.82806">
        <ele>59</ele>
        <time>2021-05-19T18:10:17Z</time>
      </trkpt>
      <trkpt lat="46.78954" lon="0.82704">
        <ele>59</ele>
        <time>2021-05-19T18:10:30Z</time>
      </trkpt>
      <trkpt lat="46.78953" lon="0.82641">
        <ele>59</ele>
        <time>2021-05-19T18:10:38Z</time>
      </trkpt>
      <trkpt lat="46.78952" lon="0.82612">
        <ele>60</ele>
        <time>2021-05-19T18:10:41Z</time>
      </trkpt>
      <trkpt lat="46.78941" lon="0.82542">
        <ele>60</ele>
        <time>2021-05-19T18:10:50Z</time>
      </trkpt>
      <trkpt lat="46.78933" lon="0.82479">
        <ele>60</ele>
        <time>2021-05-19T18:10:58Z</time>
      </trkpt>
      <trkpt lat="46.7892" lon="0.82431">
        <ele>59</ele>
        <time>2021-05-19T18:11:04Z</time>
      </trkpt>
      <trkpt lat="46.7891" lon="0.82406">
        <ele>59</ele>
        <time>2021-05-19T18:11:07Z</time>
      </trkpt>
      <trkpt lat="46.78856" lon="0.82305">
        <ele>57</ele>
        <time>2021-05-19T18:11:23Z</time>
      </trkpt>
      <trkpt lat="46.78852" lon="0.82284">
        <ele>56</ele>
        <time>2021-05-19T18:11:26Z</time>
      </trkpt>
      <trkpt lat="46.78852" lon="0.82267">
        <ele>55</ele>
        <time>2021-05-19T18:11:28Z</time>
      </trkpt>
      <trkpt lat="46.78865" lon="0.82214">
        <ele>56</ele>
        <time>2021-05-19T18:11:35Z</time>
      </trkpt>
      <trkpt lat="46.78869" lon="0.82175">
        <ele>56</ele>
        <time>2021-05-19T18:11:39Z</time>
      </trkpt>
      <trkpt lat="46.78859" lon="0.82119">
        <ele>56</ele>
        <time>2021-05-19T18:11:47Z</time>
      </trkpt>
      <trkpt lat="46.78851" lon="0.8206">
        <ele>57</ele>
        <time>2021-05-19T18:11:54Z</time>
      </trkpt>
      <trkpt lat="46.7885" lon="0.81976">
        <ele>57</ele>
        <time>2021-05-19T18:12:04Z</time>
      </trkpt>
      <trkpt lat="46.78852" lon="0.81943">
        <ele>57</ele>
        <time>2021-05-19T18:12:08Z</time>
      </trkpt>
      <trkpt lat="46.78861" lon="0.81909">
        <ele>57</ele>
        <time>2021-05-19T18:12:13Z</time>
      </trkpt>
      <trkpt lat="46.78871" lon="0.81874">
        <ele>58</ele>
        <time>2021-05-19T18:12:17Z</time>
      </trkpt>
      <trkpt lat="46.78943" lon="0.81769">
        <ele>59</ele>
        <time>2021-05-19T18:12:35Z</time>
      </trkpt>
      <trkpt lat="46.78736" lon="0.81473">
        <ele>70</ele>
        <time>2021-05-19T18:13:27Z</time>
      </trkpt>
      <trkpt lat="46.78713" lon="0.81418">
        <ele>73</ele>
        <time>2021-05-19T18:13:35Z</time>
      </trkpt>
      <trkpt lat="46.78689" lon="0.81355">
        <ele>72</ele>
        <time>2021-05-19T18:13:43Z</time>
      </trkpt>
      <trkpt lat="46.78664" lon="0.81323">
        <ele>73</ele>
        <time>2021-05-19T18:13:49Z</time>
      </trkpt>
      <trkpt lat="46.78622" lon="0.81276">
        <ele>71</ele>
        <time>2021-05-19T18:13:59Z</time>
      </trkpt>
      <trkpt lat="46.78483" lon="0.81147">
        <ele>72</ele>
        <time>2021-05-19T18:14:28Z</time>
      </trkpt>
      <trkpt lat="46.78473" lon="0.81126">
        <ele>71</ele>
        <time>2021-05-19T18:14:31Z</time>
      </trkpt>
      <trkpt lat="46.78453" lon="0.81108">
        <ele>71</ele>
        <time>2021-05-19T18:14:35Z</time>
      </trkpt>
      <trkpt lat="46.78442" lon="0.8109">
        <ele>71</ele>
        <time>2021-05-19T18:14:38Z</time>
      </trkpt>
      <trkpt lat="46.78419" lon="0.81032">
        <ele>74</ele>
        <time>2021-05-19T18:14:47Z</time>
      </trkpt>
      <trkpt lat="46.78406" lon="0.80994">
        <ele>76</ele>
        <time>2021-05-19T18:14:52Z</time>
      </trkpt>
      <trkpt lat="46.78393" lon="0.80972">
        <ele>77</ele>
        <time>2021-05-19T18:14:55Z</time>
      </trkpt>
      <trkpt lat="46.78368" lon="0.80946">
        <ele>78</ele>
        <time>2021-05-19T18:15:01Z</time>
      </trkpt>
      <trkpt lat="46.78247" lon="0.80789">
        <ele>90</ele>
        <time>2021-05-19T18:15:29Z</time>
      </trkpt>
      <trkpt lat="46.78241" lon="0.8078">
        <ele>90</ele>
        <time>2021-05-19T18:15:31Z</time>
      </trkpt>
      <trkpt lat="46.78233" lon="0.80769">
        <ele>91</ele>
        <time>2021-05-19T18:15:33Z</time>
      </trkpt>
      <trkpt lat="46.7822" lon="0.80752">
        <ele>93</ele>
        <time>2021-05-19T18:15:36Z</time>
      </trkpt>
      <trkpt lat="46.78204" lon="0.8073">
        <ele>94</ele>
        <time>2021-05-19T18:15:40Z</time>
      </trkpt>
      <trkpt lat="46.78183" lon="0.80692">
        <ele>97</ele>
        <time>2021-05-19T18:15:46Z</time>
      </trkpt>
      <trkpt lat="46.77961" lon="0.80183">
        <ele>95</ele>
        <time>2021-05-19T18:16:59Z</time>
      </trkpt>
      <trkpt lat="46.77847" lon="0.79932">
        <ele>94</ele>
        <time>2021-05-19T18:17:36Z</time>
      </trkpt>
      <trkpt lat="46.77766" lon="0.79809">
        <ele>97</ele>
        <time>2021-05-19T18:17:57Z</time>
      </trkpt>
      <trkpt lat="46.7775" lon="0.79774">
        <ele>98</ele>
        <time>2021-05-19T18:18:02Z</time>
      </trkpt>
      <trkpt lat="46.77745" lon="0.79749">
        <ele>98</ele>
        <time>2021-05-19T18:18:05Z</time>
      </trkpt>
      <trkpt lat="46.77731" lon="0.79609">
        <ele>102</ele>
        <time>2021-05-19T18:18:23Z</time>
      </trkpt>
      <trkpt lat="46.77709" lon="0.79532">
        <ele>101</ele>
        <time>2021-05-19T18:18:33Z</time>
      </trkpt>
      <trkpt lat="46.77679" lon="0.7944">
        <ele>98</ele>
        <time>2021-05-19T18:18:45Z</time>
      </trkpt>
      <trkpt lat="46.77657" lon="0.79373">
        <ele>95</ele>
        <time>2021-05-19T18:18:54Z</time>
      </trkpt>
      <trkpt lat="46.77651" lon="0.79334">
        <ele>94</ele>
        <time>2021-05-19T18:18:59Z</time>
      </trkpt>
      <trkpt lat="46.77653" lon="0.79261">
        <ele>93</ele>
        <time>2021-05-19T18:19:08Z</time>
      </trkpt>
      <trkpt lat="46.77668" lon="0.79138">
        <ele>94</ele>
        <time>2021-05-19T18:19:23Z</time>
      </trkpt>
      <trkpt lat="46.77698" lon="0.78713">
        <ele>102</ele>
        <time>2021-05-19T18:20:15Z</time>
      </trkpt>
      <trkpt lat="46.77712" lon="0.78555">
        <ele>104</ele>
        <time>2021-05-19T18:20:35Z</time>
      </trkpt>
      <trkpt lat="46.77717" lon="0.78528">
        <ele>104</ele>
        <time>2021-05-19T18:20:38Z</time>
      </trkpt>
      <trkpt lat="46.77731" lon="0.78506">
        <ele>105</ele>
        <time>2021-05-19T18:20:42Z</time>
      </trkpt>
      <trkpt lat="46.7782" lon="0.78349">
        <ele>116</ele>
        <time>2021-05-19T18:21:07Z</time>
      </trkpt>
      <trkpt lat="46.77833" lon="0.78321">
        <ele>119</ele>
        <time>2021-05-19T18:21:11Z</time>
      </trkpt>
      <trkpt lat="46.77836" lon="0.78293">
        <ele>122</ele>
        <time>2021-05-19T18:21:14Z</time>
      </trkpt>
      <trkpt lat="46.77831" lon="0.78267">
        <ele>125</ele>
        <time>2021-05-19T18:21:17Z</time>
      </trkpt>
      <trkpt lat="46.77818" lon="0.7824">
        <ele>127</ele>
        <time>2021-05-19T18:21:21Z</time>
      </trkpt>
      <trkpt lat="46.77788" lon="0.78231">
        <ele>127</ele>
        <time>2021-05-19T18:21:27Z</time>
      </trkpt>
      <trkpt lat="46.77754" lon="0.78215">
        <ele>128</ele>
        <time>2021-05-19T18:21:33Z</time>
      </trkpt>
      <trkpt lat="46.77736" lon="0.78206">
        <ele>128</ele>
        <time>2021-05-19T18:21:37Z</time>
      </trkpt>
      <trkpt lat="46.77725" lon="0.78186">
        <ele>130</ele>
        <time>2021-05-19T18:21:40Z</time>
      </trkpt>
      <trkpt lat="46.77719" lon="0.78156">
        <ele>132</ele>
        <time>2021-05-19T18:21:44Z</time>
      </trkpt>
      <trkpt lat="46.77676" lon="0.77976">
        <ele>132</ele>
        <time>2021-05-19T18:22:07Z</time>
      </trkpt>
      <trkpt lat="46.77629" lon="0.77753">
        <ele>131</ele>
        <time>2021-05-19T18:22:35Z</time>
      </trkpt>
      <trkpt lat="46.77622" lon="0.77728">
        <ele>132</ele>
        <time>2021-05-19T18:22:38Z</time>
      </trkpt>
      <trkpt lat="46.77606" lon="0.77713">
        <ele>134</ele>
        <time>2021-05-19T18:22:42Z</time>
      </trkpt>
      <trkpt lat="46.77588" lon="0.77703">
        <ele>135</ele>
        <time>2021-05-19T18:22:45Z</time>
      </trkpt>
      <trkpt lat="46.77413" lon="0.77649">
        <ele>125</ele>
        <time>2021-05-19T18:23:17Z</time>
      </trkpt>
      <trkpt lat="46.77393" lon="0.77638">
        <ele>124</ele>
        <time>2021-05-19T18:23:21Z</time>
      </trkpt>
      <trkpt lat="46.77368" lon="0.77615">
        <ele>121</ele>
        <time>2021-05-19T18:23:26Z</time>
      </trkpt>
      <trkpt lat="46.77355" lon="0.77581">
        <ele>118</ele>
        <time>2021-05-19T18:23:31Z</time>
      </trkpt>
      <trkpt lat="46.77348" lon="0.77546">
        <ele>117</ele>
        <time>2021-05-19T18:23:35Z</time>
      </trkpt>
      <trkpt lat="46.77348" lon="0.77511">
        <ele>116</ele>
        <time>2021-05-19T18:23:40Z</time>
      </trkpt>
      <trkpt lat="46.77366" lon="0.77332">
        <ele>115</ele>
        <time>2021-05-19T18:24:02Z</time>
      </trkpt>
      <trkpt lat="46.7738" lon="0.77184">
        <ele>118</ele>
        <time>2021-05-19T18:24:20Z</time>
      </trkpt>
      <trkpt lat="46.77389" lon="0.77103">
        <ele>119</ele>
        <time>2021-05-19T18:24:30Z</time>
      </trkpt>
      <trkpt lat="46.77393" lon="0.77046">
        <ele>118</ele>
        <time>2021-05-19T18:24:37Z</time>
      </trkpt>
      <trkpt lat="46.7737" lon="0.76285">
        <ele>118</ele>
        <time>2021-05-19T18:26:10Z</time>
      </trkpt>
      <trkpt lat="46.77364" lon="0.76245">
        <ele>118</ele>
        <time>2021-05-19T18:26:15Z</time>
      </trkpt>
      <trkpt lat="46.77348" lon="0.762">
        <ele>117</ele>
        <time>2021-05-19T18:26:21Z</time>
      </trkpt>
      <trkpt lat="46.77287" lon="0.76099">
        <ele>116</ele>
        <time>2021-05-19T18:26:37Z</time>
      </trkpt>
      <trkpt lat="46.77271" lon="0.76066">
        <ele>116</ele>
        <time>2021-05-19T18:26:42Z</time>
      </trkpt>
      <trkpt lat="46.77181" lon="0.75912">
        <ele>112</ele>
        <time>2021-05-19T18:27:07Z</time>
      </trkpt>
      <trkpt lat="46.77161" lon="0.75876">
        <ele>110</ele>
        <time>2021-05-19T18:27:13Z</time>
      </trkpt>
      <trkpt lat="46.77058" lon="0.75544">
        <ele>95</ele>
        <time>2021-05-19T18:27:57Z</time>
      </trkpt>
      <trkpt lat="46.7697" lon="0.75224">
        <ele>88</ele>
        <time>2021-05-19T18:28:39Z</time>
      </trkpt>
      <trkpt lat="46.76965" lon="0.7521">
        <ele>88</ele>
        <time>2021-05-19T18:28:41Z</time>
      </trkpt>
      <trkpt lat="46.76959" lon="0.75195">
        <ele>88</ele>
        <time>2021-05-19T18:28:43Z</time>
      </trkpt>
      <trkpt lat="46.76947" lon="0.75186">
        <ele>89</ele>
        <time>2021-05-19T18:28:45Z</time>
      </trkpt>
      <trkpt lat="46.76909" lon="0.75168">
        <ele>89</ele>
        <time>2021-05-19T18:28:53Z</time>
      </trkpt>
      <trkpt lat="46.76896" lon="0.75151">
        <ele>90</ele>
        <time>2021-05-19T18:28:56Z</time>
      </trkpt>
      <trkpt lat="46.76874" lon="0.75112">
        <ele>91</ele>
        <time>2021-05-19T18:29:02Z</time>
      </trkpt>
      <trkpt lat="46.76617" lon="0.74515">
        <ele>100</ele>
        <time>2021-05-19T18:30:28Z</time>
      </trkpt>
      <trkpt lat="46.76561" lon="0.74393">
        <ele>101</ele>
        <time>2021-05-19T18:30:46Z</time>
      </trkpt>
      <trkpt lat="46.76539" lon="0.74365">
        <ele>102</ele>
        <time>2021-05-19T18:30:51Z</time>
      </trkpt>
      <trkpt lat="46.76365" lon="0.74167">
        <ele>105</ele>
        <time>2021-05-19T18:31:30Z</time>
      </trkpt>
      <trkpt lat="46.76328" lon="0.74105">
        <ele>109</ele>
        <time>2021-05-19T18:31:40Z</time>
      </trkpt>
      <trkpt lat="46.76289" lon="0.74043">
        <ele>113</ele>
        <time>2021-05-19T18:31:50Z</time>
      </trkpt>
      <trkpt lat="46.7627" lon="0.74015">
        <ele>116</ele>
        <time>2021-05-19T18:31:55Z</time>
      </trkpt>
      <trkpt lat="46.76254" lon="0.73978">
        <ele>118</ele>
        <time>2021-05-19T18:32:00Z</time>
      </trkpt>
      <trkpt lat="46.76248" lon="0.73942">
        <ele>120</ele>
        <time>2021-05-19T18:32:05Z</time>
      </trkpt>
      <trkpt lat="46.76247" lon="0.73906">
        <ele>123</ele>
        <time>2021-05-19T18:32:09Z</time>
      </trkpt>
      <trkpt lat="46.76255" lon="0.73869">
        <ele>126</ele>
        <time>2021-05-19T18:32:14Z</time>
      </trkpt>
      <trkpt lat="46.76272" lon="0.73832">
        <ele>129</ele>
        <time>2021-05-19T18:32:20Z</time>
      </trkpt>
      <trkpt lat="46.76308" lon="0.73754">
        <ele>131</ele>
        <time>2021-05-19T18:32:31Z</time>
      </trkpt>
      <trkpt lat="46.76314" lon="0.7373">
        <ele>131</ele>
        <time>2021-05-19T18:32:34Z</time>
      </trkpt>
      <trkpt lat="46.76335" lon="0.73581">
        <ele>132</ele>
        <time>2021-05-19T18:32:53Z</time>
      </trkpt>
      <trkpt lat="46.76362" lon="0.73379">
        <ele>131</ele>
        <time>2021-05-19T18:33:18Z</time>
      </trkpt>
      <trkpt lat="46.76369" lon="0.73324">
        <ele>130</ele>
        <time>2021-05-19T18:33:25Z</time>
      </trkpt>
      <trkpt lat="46.76416" lon="0.73136">
        <ele>126</ele>
        <time>2021-05-19T18:33:49Z</time>
      </trkpt>
      <trkpt lat="46.76419" lon="0.73067">
        <ele>129</ele>
        <time>2021-05-19T18:33:57Z</time>
      </trkpt>
      <trkpt lat="46.76429" lon="0.72889">
        <ele>131</ele>
        <time>2021-05-19T18:34:19Z</time>
      </trkpt>
      <trkpt lat="46.76427" lon="0.72856">
        <ele>131</ele>
        <time>2021-05-19T18:34:23Z</time>
      </trkpt>
      <trkpt lat="46.7642" lon="0.7282">
        <ele>131</ele>
        <time>2021-05-19T18:34:28Z</time>
      </trkpt>
      <trkpt lat="46.76401" lon="0.7278">
        <ele>131</ele>
        <time>2021-05-19T18:34:34Z</time>
      </trkpt>
      <trkpt lat="46.76204" lon="0.72339">
        <ele>132</ele>
        <time>2021-05-19T18:35:38Z</time>
      </trkpt>
      <trkpt lat="46.76113" lon="0.72029">
        <ele>134</ele>
        <time>2021-05-19T18:36:19Z</time>
      </trkpt>
      <trkpt lat="46.76046" lon="0.71798">
        <ele>134</ele>
        <time>2021-05-19T18:36:50Z</time>
      </trkpt>
      <trkpt lat="46.75979" lon="0.71566">
        <ele>132</ele>
        <time>2021-05-19T18:37:20Z</time>
      </trkpt>
      <trkpt lat="46.75966" lon="0.71527">
        <ele>132</ele>
        <time>2021-05-19T18:37:26Z</time>
      </trkpt>
      <trkpt lat="46.75953" lon="0.71491">
        <ele>132</ele>
        <time>2021-05-19T18:37:30Z</time>
      </trkpt>
      <trkpt lat="46.75908" lon="0.71412">
        <ele>131</ele>
        <time>2021-05-19T18:37:43Z</time>
      </trkpt>
      <trkpt lat="46.75814" lon="0.71256">
        <ele>132</ele>
        <time>2021-05-19T18:38:08Z</time>
      </trkpt>
      <trkpt lat="46.75798" lon="0.71221">
        <ele>132</ele>
        <time>2021-05-19T18:38:13Z</time>
      </trkpt>
      <trkpt lat="46.75791" lon="0.7118">
        <ele>132</ele>
        <time>2021-05-19T18:38:19Z</time>
      </trkpt>
      <trkpt lat="46.75797" lon="0.71127">
        <ele>133</ele>
        <time>2021-05-19T18:38:25Z</time>
      </trkpt>
      <trkpt lat="46.75851" lon="0.70882">
        <ele>130</ele>
        <time>2021-05-19T18:38:57Z</time>
      </trkpt>
      <trkpt lat="46.75859" lon="0.70835">
        <ele>129</ele>
        <time>2021-05-19T18:39:02Z</time>
      </trkpt>
      <trkpt lat="46.75907" lon="0.70714">
        <ele>131</ele>
        <time>2021-05-19T18:39:19Z</time>
      </trkpt>
      <trkpt lat="46.7587" lon="0.70672">
        <ele>132</ele>
        <time>2021-05-19T18:39:28Z</time>
      </trkpt>
      <trkpt lat="46.75842" lon="0.70611">
        <ele>132</ele>
        <time>2021-05-19T18:39:37Z</time>
      </trkpt>
      <trkpt lat="46.75791" lon="0.70501">
        <ele>133</ele>
        <time>2021-05-19T18:39:53Z</time>
      </trkpt>
      <trkpt lat="46.75745" lon="0.70443">
        <ele>132</ele>
        <time>2021-05-19T18:40:04Z</time>
      </trkpt>
      <trkpt lat="46.75735" lon="0.704">
        <ele>132</ele>
        <time>2021-05-19T18:40:09Z</time>
      </trkpt>
      <trkpt lat="46.75676" lon="0.70174">
        <ele>134</ele>
        <time>2021-05-19T18:40:39Z</time>
      </trkpt>
      <trkpt lat="46.75659" lon="0.70138">
        <ele>134</ele>
        <time>2021-05-19T18:40:44Z</time>
      </trkpt>
      <trkpt lat="46.75614" lon="0.70068">
        <ele>135</ele>
        <time>2021-05-19T18:40:56Z</time>
      </trkpt>
      <trkpt lat="46.75541" lon="0.69954">
        <ele>135</ele>
        <time>2021-05-19T18:41:15Z</time>
      </trkpt>
      <trkpt lat="46.75445" lon="0.6979">
        <ele>136</ele>
        <time>2021-05-19T18:41:41Z</time>
      </trkpt>
      <trkpt lat="46.75282" lon="0.69609">
        <ele>139</ele>
        <time>2021-05-19T18:42:18Z</time>
      </trkpt>
      <trkpt lat="46.75116" lon="0.69425">
        <ele>137</ele>
        <time>2021-05-19T18:42:55Z</time>
      </trkpt>
      <trkpt lat="46.74912" lon="0.692">
        <ele>137</ele>
        <time>2021-05-19T18:43:40Z</time>
      </trkpt>
      <trkpt lat="46.74828" lon="0.69093">
        <ele>138</ele>
        <time>2021-05-19T18:44:00Z</time>
      </trkpt>
      <trkpt lat="46.74786" lon="0.69061">
        <ele>139</ele>
        <time>2021-05-19T18:44:08Z</time>
      </trkpt>
      <trkpt lat="46.7474" lon="0.69019">
        <ele>139</ele>
        <time>2021-05-19T18:44:18Z</time>
      </trkpt>
      <trkpt lat="46.74728" lon="0.68978">
        <ele>138</ele>
        <time>2021-05-19T18:44:24Z</time>
      </trkpt>
      <trkpt lat="46.74693" lon="0.68918">
        <ele>137</ele>
        <time>2021-05-19T18:44:33Z</time>
      </trkpt>
      <trkpt lat="46.7455" lon="0.68417">
        <ele>138</ele>
        <time>2021-05-19T18:45:39Z</time>
      </trkpt>
      <trkpt lat="46.74471" lon="0.68138">
        <ele>136</ele>
        <time>2021-05-19T18:46:16Z</time>
      </trkpt>
      <trkpt lat="46.74439" lon="0.68083">
        <ele>135</ele>
        <time>2021-05-19T18:46:25Z</time>
      </trkpt>
      <trkpt lat="46.74074" lon="0.67662">
        <ele>138</ele>
        <time>2021-05-19T18:47:48Z</time>
      </trkpt>
      <trkpt lat="46.74049" lon="0.67546">
        <ele>135</ele>
        <time>2021-05-19T18:48:02Z</time>
      </trkpt>
      <trkpt lat="46.73978" lon="0.6741">
        <ele>135</ele>
        <time>2021-05-19T18:48:23Z</time>
      </trkpt>
      <trkpt lat="46.74061" lon="0.67279">
        <ele>135</ele>
        <time>2021-05-19T18:48:45Z</time>
      </trkpt>
      <trkpt lat="46.74061" lon="0.67206">
        <ele>134</ele>
        <time>2021-05-19T18:48:54Z</time>
      </trkpt>
      <trkpt lat="46.74053" lon="0.67164">
        <ele>134</ele>
        <time>2021-05-19T18:48:59Z</time>
      </trkpt>
      <trkpt lat="46.73712" lon="0.66514">
        <ele>140</ele>
        <time>2021-05-19T18:50:39Z</time>
      </trkpt>
      <trkpt lat="46.73685" lon="0.66475">
        <ele>139</ele>
        <time>2021-05-19T18:50:46Z</time>
      </trkpt>
      <trkpt lat="46.73462" lon="0.6636">
        <ele>137</ele>
        <time>2021-05-19T18:51:28Z</time>
      </trkpt>
      <trkpt lat="46.73366" lon="0.66241">
        <ele>136</ele>
        <time>2021-05-19T18:51:50Z</time>
      </trkpt>
      <trkpt lat="46.73237" lon="0.66093">
        <ele>134</ele>
        <time>2021-05-19T18:52:20Z</time>
      </trkpt>
      <trkpt lat="46.7316" lon="0.6598">
        <ele>134</ele>
        <time>2021-05-19T18:52:39Z</time>
      </trkpt>
      <trkpt lat="46.73131" lon="0.65944">
        <ele>134</ele>
        <time>2021-05-19T18:52:46Z</time>
      </trkpt>
      <trkpt lat="46.73075" lon="0.65898">
        <ele>136</ele>
        <time>2021-05-19T18:52:57Z</time>
      </trkpt>
      <trkpt lat="46.73019" lon="0.6581">
        <ele>135</ele>
        <time>2021-05-19T18:53:12Z</time>
      </trkpt>
      <trkpt lat="46.72998" lon="0.65701">
        <ele>133</ele>
        <time>2021-05-19T18:53:26Z</time>
      </trkpt>
      <trkpt lat="46.72955" lon="0.65543">
        <ele>130</ele>
        <time>2021-05-19T18:53:46Z</time>
      </trkpt>
      <trkpt lat="46.72905" lon="0.65449">
        <ele>128</ele>
        <time>2021-05-19T18:54:01Z</time>
      </trkpt>
      <trkpt lat="46.72834" lon="0.65346">
        <ele>125</ele>
        <time>2021-05-19T18:54:19Z</time>
      </trkpt>
      <trkpt lat="46.72786" lon="0.65304">
        <ele>123</ele>
        <time>2021-05-19T18:54:29Z</time>
      </trkpt>
      <trkpt lat="46.72722" lon="0.65307">
        <ele>121</ele>
        <time>2021-05-19T18:54:40Z</time>
      </trkpt>
      <trkpt lat="46.72645" lon="0.65358">
        <ele>119</ele>
        <time>2021-05-19T18:54:55Z</time>
      </trkpt>
      <trkpt lat="46.72597" lon="0.65452">
        <ele>118</ele>
        <time>2021-05-19T18:55:09Z</time>
      </trkpt>
      <trkpt lat="46.72455" lon="0.65613">
        <ele>116</ele>
        <time>2021-05-19T18:55:41Z</time>
      </trkpt>
      <trkpt lat="46.72399" lon="0.65628">
        <ele>111</ele>
        <time>2021-05-19T18:55:52Z</time>
      </trkpt>
      <trkpt lat="46.72337" lon="0.65619">
        <ele>105</ele>
        <time>2021-05-19T18:56:03Z</time>
      </trkpt>
      <trkpt lat="46.72239" lon="0.65716">
        <ele>102</ele>
        <time>2021-05-19T18:56:24Z</time>
      </trkpt>
      <trkpt lat="46.72147" lon="0.65898">
        <ele>97</ele>
        <time>2021-05-19T18:56:51Z</time>
      </trkpt>
      <trkpt lat="46.72137" lon="0.66002">
        <ele>94</ele>
        <time>2021-05-19T18:57:04Z</time>
      </trkpt>
      <trkpt lat="46.72077" lon="0.66074">
        <ele>92</ele>
        <time>2021-05-19T18:57:18Z</time>
      </trkpt>
      <trkpt lat="46.72099" lon="0.66325">
        <ele>107</ele>
        <time>2021-05-19T18:57:49Z</time>
      </trkpt>
      <trkpt lat="46.72117" lon="0.66403">
        <ele>111</ele>
        <time>2021-05-19T18:57:59Z</time>
      </trkpt>
      <trkpt lat="46.72235" lon="0.66594">
        <ele>120</ele>
        <time>2021-05-19T18:58:30Z</time>
      </trkpt>
      <trkpt lat="46.72252" lon="0.6667">
        <ele>124</ele>
        <time>2021-05-19T18:58:40Z</time>
      </trkpt>
      <trkpt lat="46.72266" lon="0.6684">
        <ele>129</ele>
        <time>2021-05-19T18:59:01Z</time>
      </trkpt>
      <trkpt lat="46.72258" lon="0.66901">
        <ele>130</ele>
        <time>2021-05-19T18:59:08Z</time>
      </trkpt>
      <trkpt lat="46.71923" lon="0.67657">
        <ele>137</ele>
        <time>2021-05-19T19:00:58Z</time>
      </trkpt>
      <trkpt lat="46.71729" lon="0.6814">
        <ele>138</ele>
        <time>2021-05-19T19:02:07Z</time>
      </trkpt>
      <trkpt lat="46.71554" lon="0.68689">
        <ele>129</ele>
        <time>2021-05-19T19:03:20Z</time>
      </trkpt>
      <trkpt lat="46.71468" lon="0.68974">
        <ele>134</ele>
        <time>2021-05-19T19:03:58Z</time>
      </trkpt>
      <trkpt lat="46.71369" lon="0.6945">
        <ele>136</ele>
        <time>2021-05-19T19:04:59Z</time>
      </trkpt>
      <trkpt lat="46.71406" lon="0.69645">
        <ele>133</ele>
        <time>2021-05-19T19:05:24Z</time>
      </trkpt>
      <trkpt lat="46.71385" lon="0.70131">
        <ele>125</ele>
        <time>2021-05-19T19:06:23Z</time>
      </trkpt>
      <trkpt lat="46.71515" lon="0.70261">
        <ele>127</ele>
        <time>2021-05-19T19:06:51Z</time>
      </trkpt>
      <trkpt lat="46.71719" lon="0.70537">
        <ele>135</ele>
        <time>2021-05-19T19:07:41Z</time>
      </trkpt>
      <trkpt lat="46.71876" lon="0.70861">
        <ele>138</ele>
        <time>2021-05-19T19:08:29Z</time>
      </trkpt>
      <trkpt lat="46.71933" lon="0.71192">
        <ele>138</ele>
        <time>2021-05-19T19:09:11Z</time>
      </trkpt>
      <trkpt lat="46.72136" lon="0.71579">
        <ele>141</ele>
        <time>2021-05-19T19:10:10Z</time>
      </trkpt>
      <trkpt lat="46.7224" lon="0.71867">
        <ele>140</ele>
        <time>2021-05-19T19:10:50Z</time>
      </trkpt>
      <trkpt lat="46.72324" lon="0.72373">
        <ele>145</ele>
        <time>2021-05-19T19:11:53Z</time>
      </trkpt>
      <trkpt lat="46.72937" lon="0.7373">
        <ele>152</ele>
        <time>2021-05-19T19:15:12Z</time>
      </trkpt>
      <trkpt lat="46.73457" lon="0.74956">
        <ele>141</ele>
        <time>2021-05-19T19:18:07Z</time>
      </trkpt>
      <trkpt lat="46.7363" lon="0.75267">
        <ele>138</ele>
        <time>2021-05-19T19:18:56Z</time>
      </trkpt>
      <trkpt lat="46.73551" lon="0.75794">
        <ele>138</ele>
        <time>2021-05-19T19:20:02Z</time>
      </trkpt>
      <trkpt lat="46.73472" lon="0.75916">
        <ele>136</ele>
        <time>2021-05-19T19:20:22Z</time>
      </trkpt>
      <trkpt lat="46.73442" lon="0.76234">
        <ele>137</ele>
        <time>2021-05-19T19:21:02Z</time>
      </trkpt>
      <trkpt lat="46.73467" lon="0.76261">
        <ele>137</ele>
        <time>2021-05-19T19:21:07Z</time>
      </trkpt>
      <trkpt lat="46.73453" lon="0.76353">
        <ele>137</ele>
        <time>2021-05-19T19:21:19Z</time>
      </trkpt>
      <trkpt lat="46.73684" lon="0.76464">
        <ele>138</ele>
        <time>2021-05-19T19:22:02Z</time>
      </trkpt>
      <trkpt lat="46.73724" lon="0.76489">
        <ele>137</ele>
        <time>2021-05-19T19:22:10Z</time>
      </trkpt>
      <trkpt lat="46.73731" lon="0.76584">
        <ele>134</ele>
        <time>2021-05-19T19:22:21Z</time>
      </trkpt>
      <trkpt lat="46.73812" lon="0.76596">
        <ele>133</ele>
        <time>2021-05-19T19:22:36Z</time>
      </trkpt>
      <trkpt lat="46.73775" lon="0.76788">
        <ele>133</ele>
        <time>2021-05-19T19:23:00Z</time>
      </trkpt>
      <trkpt lat="46.73777" lon="0.76903">
        <ele>136</ele>
        <time>2021-05-19T19:23:14Z</time>
      </trkpt>
      <trkpt lat="46.73794" lon="0.77436">
        <ele>137</ele>
        <time>2021-05-19T19:24:19Z</time>
      </trkpt>
      <trkpt lat="46.73766" lon="0.78352">
        <ele>132</ele>
        <time>2021-05-19T19:26:11Z</time>
      </trkpt>
      <trkpt lat="46.7373" lon="0.78411">
        <ele>132</ele>
        <time>2021-05-19T19:26:21Z</time>
      </trkpt>
      <trkpt lat="46.73721" lon="0.78467">
        <ele>132</ele>
        <time>2021-05-19T19:26:28Z</time>
      </trkpt>
      <trkpt lat="46.73683" lon="0.78498">
        <ele>132</ele>
        <time>2021-05-19T19:26:35Z</time>
      </trkpt>
      <trkpt lat="46.73618" lon="0.78595">
        <ele>132</ele>
        <time>2021-05-19T19:26:52Z</time>
      </trkpt>
      <trkpt lat="46.73613" lon="0.78697">
        <ele>132</ele>
        <time>2021-05-19T19:27:04Z</time>
      </trkpt>
      <trkpt lat="46.73593" lon="0.78743">
        <ele>132</ele>
        <time>2021-05-19T19:27:11Z</time>
      </trkpt>
      <trkpt lat="46.73467" lon="0.78957">
        <ele>133</ele>
        <time>2021-05-19T19:27:45Z</time>
      </trkpt>
      <trkpt lat="46.73408" lon="0.79148">
        <ele>129</ele>
        <time>2021-05-19T19:28:11Z</time>
      </trkpt>
      <trkpt lat="46.73399" lon="0.79207">
        <ele>127</ele>
        <time>2021-05-19T19:28:18Z</time>
      </trkpt>
      <trkpt lat="46.73408" lon="0.79294">
        <ele>125</ele>
        <time>2021-05-19T19:28:29Z</time>
      </trkpt>
      <trkpt lat="46.7339" lon="0.7934">
        <ele>122</ele>
        <time>2021-05-19T19:28:36Z</time>
      </trkpt>
      <trkpt lat="46.7331" lon="0.79587">
        <ele>107</ele>
        <time>2021-05-19T19:29:09Z</time>
      </trkpt>
      <trkpt lat="46.73168" lon="0.79715">
        <ele>103</ele>
        <time>2021-05-19T19:29:39Z</time>
      </trkpt>
      <trkpt lat="46.73121" lon="0.79868">
        <ele>106</ele>
        <time>2021-05-19T19:29:59Z</time>
      </trkpt>
      <trkpt lat="46.73165" lon="0.80072">
        <ele>105</ele>
        <time>2021-05-19T19:30:25Z</time>
      </trkpt>
      <trkpt lat="46.73156" lon="0.80133">
        <ele>106</ele>
        <time>2021-05-19T19:30:33Z</time>
      </trkpt>
      <trkpt lat="46.73105" lon="0.80223">
        <ele>108</ele>
        <time>2021-05-19T19:30:47Z</time>
      </trkpt>
      <trkpt lat="46.73025" lon="0.80309">
        <ele>108</ele>
        <time>2021-05-19T19:31:05Z</time>
      </trkpt>
      <trkpt lat="46.72943" lon="0.80483">
        <ele>107</ele>
        <time>2021-05-19T19:31:30Z</time>
      </trkpt>
      <trkpt lat="46.72794" lon="0.80659">
        <ele>115</ele>
        <time>2021-05-19T19:32:05Z</time>
      </trkpt>
      <trkpt lat="46.72704" lon="0.80777">
        <ele>116</ele>
        <time>2021-05-19T19:32:26Z</time>
      </trkpt>
      <trkpt lat="46.72657" lon="0.80906">
        <ele>108</ele>
        <time>2021-05-19T19:32:44Z</time>
      </trkpt>
      <trkpt lat="46.7268" lon="0.81086">
        <ele>99</ele>
        <time>2021-05-19T19:33:06Z</time>
      </trkpt>
      <trkpt lat="46.72621" lon="0.81228">
        <ele>95</ele>
        <time>2021-05-19T19:33:26Z</time>
      </trkpt>
      <trkpt lat="46.72595" lon="0.81516">
        <ele>107</ele>
        <time>2021-05-19T19:34:02Z</time>
      </trkpt>
      <trkpt lat="46.72495" lon="0.81692">
        <ele>118</ele>
        <time>2021-05-19T19:34:30Z</time>
      </trkpt>
      <trkpt lat="46.72427" lon="0.8191">
        <ele>111</ele>
        <time>2021-05-19T19:34:59Z</time>
      </trkpt>
      <trkpt lat="46.72433" lon="0.82048">
        <ele>111</ele>
        <time>2021-05-19T19:35:16Z</time>
      </trkpt>
      <trkpt lat="46.72374" lon="0.82211">
        <ele>110</ele>
        <time>2021-05-19T19:35:38Z</time>
      </trkpt>
      <trkpt lat="46.72398" lon="0.82438">
        <ele>112</ele>
        <time>2021-05-19T19:36:06Z</time>
      </trkpt>
      <trkpt lat="46.72395" lon="0.82618">
        <ele>110</ele>
        <time>2021-05-19T19:36:28Z</time>
      </trkpt>
      <trkpt lat="46.72436" lon="0.82773">
        <ele>111</ele>
        <time>2021-05-19T19:36:49Z</time>
      </trkpt>
      <trkpt lat="46.72448" lon="0.82923">
        <ele>108</ele>
        <time>2021-05-19T19:37:07Z</time>
      </trkpt>
      <trkpt lat="46.72595" lon="0.83112">
        <ele>112</ele>
        <time>2021-05-19T19:37:42Z</time>
      </trkpt>
      <trkpt lat="46.72557" lon="0.83309">
        <ele>101</ele>
        <time>2021-05-19T19:38:07Z</time>
      </trkpt>
      <trkpt lat="46.72568" lon="0.83442">
        <ele>98</ele>
        <time>2021-05-19T19:38:23Z</time>
      </trkpt>
      <trkpt lat="46.72439" lon="0.83627">
        <ele>88</ele>
        <time>2021-05-19T19:38:55Z</time>
      </trkpt>
      <trkpt lat="46.72383" lon="0.83812">
        <ele>87</ele>
        <time>2021-05-19T19:39:20Z</time>
      </trkpt>
      <trkpt lat="46.72345" lon="0.83962">
        <ele>88</ele>
        <time>2021-05-19T19:39:40Z</time>
      </trkpt>
      <trkpt lat="46.72274" lon="0.84129">
        <ele>90</ele>
        <time>2021-05-19T19:40:04Z</time>
      </trkpt>
      <trkpt lat="46.72227" lon="0.84357">
        <ele>87</ele>
        <time>2021-05-19T19:40:33Z</time>
      </trkpt>
      <trkpt lat="46.72098" lon="0.84597">
        <ele>84</ele>
        <time>2021-05-19T19:41:10Z</time>
      </trkpt>
      <trkpt lat="46.72033" lon="0.84794">
        <ele>83</ele>
        <time>2021-05-19T19:41:36Z</time>
      </trkpt>
      <trkpt lat="46.72048" lon="0.85232">
        <ele>78</ele>
        <time>2021-05-19T19:42:30Z</time>
      </trkpt>
      <trkpt lat="46.72065" lon="0.85438">
        <ele>76</ele>
        <time>2021-05-19T19:42:55Z</time>
      </trkpt>
      <trkpt lat="46.72148" lon="0.8573">
        <ele>77</ele>
        <time>2021-05-19T19:43:34Z</time>
      </trkpt>
      <trkpt lat="46.72127" lon="0.86206">
        <ele>76</ele>
        <time>2021-05-19T19:44:32Z</time>
      </trkpt>
      <trkpt lat="46.72065" lon="0.86653">
        <ele>64</ele>
        <time>2021-05-19T19:45:28Z</time>
      </trkpt>
      <trkpt lat="46.72027" lon="0.86764">
        <ele>66</ele>
        <time>2021-05-19T19:45:43Z</time>
      </trkpt>
      <trkpt lat="46.7203" lon="0.86863">
        <ele>66</ele>
        <time>2021-05-19T19:45:55Z</time>
      </trkpt>
      <trkpt lat="46.72062" lon="0.87052">
        <ele>68</ele>
        <time>2021-05-19T19:46:19Z</time>
      </trkpt>
      <trkpt lat="46.72139" lon="0.8724">
        <ele>70</ele>
        <time>2021-05-19T19:46:45Z</time>
      </trkpt>
      <trkpt lat="46.72227" lon="0.87348">
        <ele>75</ele>
        <time>2021-05-19T19:47:06Z</time>
      </trkpt>
      <trkpt lat="46.72271" lon="0.87464">
        <ele>86</ele>
        <time>2021-05-19T19:47:22Z</time>
      </trkpt>
      <trkpt lat="46.72292" lon="0.87537">
        <ele>91</ele>
        <time>2021-05-19T19:47:32Z</time>
      </trkpt>
      <trkpt lat="46.72301" lon="0.87721">
        <ele>95</ele>
        <time>2021-05-19T19:47:54Z</time>
      </trkpt>
      <trkpt lat="46.72348" lon="0.87828">
        <ele>97</ele>
        <time>2021-05-19T19:48:10Z</time>
      </trkpt>
      <trkpt lat="46.72433" lon="0.8794">
        <ele>95</ele>
        <time>2021-05-19T19:48:30Z</time>
      </trkpt>
      <trkpt lat="46.7243" lon="0.88056">
        <ele>96</ele>
        <time>2021-05-19T19:48:44Z</time>
      </trkpt>
      <trkpt lat="46.72639" lon="0.88485">
        <ele>100</ele>
        <time>2021-05-19T19:49:48Z</time>
      </trkpt>
      <trkpt lat="46.72639" lon="0.88665">
        <ele>99</ele>
        <time>2021-05-19T19:50:10Z</time>
      </trkpt>
      <trkpt lat="46.72674" lon="0.88888">
        <ele>95</ele>
        <time>2021-05-19T19:50:38Z</time>
      </trkpt>
      <trkpt lat="46.72821" lon="0.89425">
        <ele>93</ele>
        <time>2021-05-19T19:51:49Z</time>
      </trkpt>
      <trkpt lat="46.72907" lon="0.89631">
        <ele>95</ele>
        <time>2021-05-19T19:52:18Z</time>
      </trkpt>
      <trkpt lat="46.72936" lon="0.89884">
        <ele>97</ele>
        <time>2021-05-19T19:52:49Z</time>
      </trkpt>
      <trkpt lat="46.72986" lon="0.90051">
        <ele>99</ele>
        <time>2021-05-19T19:53:12Z</time>
      </trkpt>
      <trkpt lat="46.73015" lon="0.90223">
        <ele>99</ele>
        <time>2021-05-19T19:53:33Z</time>
      </trkpt>
      <trkpt lat="46.73113" lon="0.90446">
        <ele>104</ele>
        <time>2021-05-19T19:54:06Z</time>
      </trkpt>
      <trkpt lat="46.73115" lon="0.90571">
        <ele>108</ele>
        <time>2021-05-19T19:54:21Z</time>
      </trkpt>
      <trkpt lat="46.73448" lon="0.91262">
        <ele>107</ele>
        <time>2021-05-19T19:56:04Z</time>
      </trkpt>
      <trkpt lat="46.73671" lon="0.91884">
        <ele>94</ele>
        <time>2021-05-19T19:57:29Z</time>
      </trkpt>
      <trkpt lat="46.73771" lon="0.92184">
        <ele>92</ele>
        <time>2021-05-19T19:58:10Z</time>
      </trkpt>
      <trkpt lat="46.73927" lon="0.92459">
        <ele>94</ele>
        <time>2021-05-19T19:58:54Z</time>
      </trkpt>
      <trkpt lat="46.74036" lon="0.92541">
        <ele>91</ele>
        <time>2021-05-19T19:59:15Z</time>
      </trkpt>
      <trkpt lat="46.74277" lon="0.92729">
        <ele>87</ele>
        <time>2021-05-19T20:00:04Z</time>
      </trkpt>
      <trkpt lat="46.74342" lon="0.92828">
        <ele>86</ele>
        <time>2021-05-19T20:00:21Z</time>
      </trkpt>
      <trkpt lat="46.74468" lon="0.92918">
        <ele>82</ele>
        <time>2021-05-19T20:00:46Z</time>
      </trkpt>
      <trkpt lat="46.74515" lon="0.92888">
        <ele>82</ele>
        <time>2021-05-19T20:00:55Z</time>
      </trkpt>
      <trkpt lat="46.74563" lon="0.92895">
        <ele>82</ele>
        <time>2021-05-19T20:01:03Z</time>
      </trkpt>
      <trkpt lat="46.74603" lon="0.92933">
        <ele>81</ele>
        <time>2021-05-19T20:01:12Z</time>
      </trkpt>
      <trkpt lat="46.74614" lon="0.9289">
        <ele>81</ele>
        <time>2021-05-19T20:01:18Z</time>
      </trkpt>
      <trkpt lat="46.74534" lon="0.92757">
        <ele>82</ele>
        <time>2021-05-19T20:01:39Z</time>
      </trkpt>
      <trkpt lat="46.74537" lon="0.9274">
        <ele>82</ele>
        <time>2021-05-19T20:01:41Z</time>
      </trkpt>
      <trkpt lat="46.74615" lon="0.92646">
        <ele>83</ele>
        <time>2021-05-19T20:01:59Z</time>
      </trkpt>
      <trkpt lat="46.74641" lon="0.92594">
        <ele>85</ele>
        <time>2021-05-19T20:02:07Z</time>
      </trkpt>
      <trkpt lat="46.74737" lon="0.92528">
        <ele>87</ele>
        <time>2021-05-19T20:02:26Z</time>
      </trkpt>
      <trkpt lat="46.74787" lon="0.92464">
        <ele>86</ele>
        <time>2021-05-19T20:02:38Z</time>
      </trkpt>
      <trkpt lat="46.75052" lon="0.92218">
        <ele>80</ele>
        <time>2021-05-19T20:03:34Z</time>
      </trkpt>
      <trkpt lat="46.75153" lon="0.92119">
        <ele>79</ele>
        <time>2021-05-19T20:03:55Z</time>
      </trkpt>
      <trkpt lat="46.75233" lon="0.92009">
        <ele>77</ele>
        <time>2021-05-19T20:04:15Z</time>
      </trkpt>
      <trkpt lat="46.75249" lon="0.91948">
        <ele>75</ele>
        <time>2021-05-19T20:04:23Z</time>
      </trkpt>
      <trkpt lat="46.75254" lon="0.91849">
        <ele>73</ele>
        <time>2021-05-19T20:04:35Z</time>
      </trkpt>
      <trkpt lat="46.75276" lon="0.91799">
        <ele>74</ele>
        <time>2021-05-19T20:04:42Z</time>
      </trkpt>
      <trkpt lat="46.75303" lon="0.91742">
        <ele>75</ele>
        <time>2021-05-19T20:04:51Z</time>
      </trkpt>
      <trkpt lat="46.75372" lon="0.9155">
        <ele>76</ele>
        <time>2021-05-19T20:05:17Z</time>
      </trkpt>
      <trkpt lat="46.75449" lon="0.91415">
        <ele>77</ele>
        <time>2021-05-19T20:05:38Z</time>
      </trkpt>
      <trkpt lat="46.75571" lon="0.91252">
        <ele>79</ele>
        <time>2021-05-19T20:06:08Z</time>
      </trkpt>
      <trkpt lat="46.75587" lon="0.91194">
        <ele>79</ele>
        <time>2021-05-19T20:06:16Z</time>
      </trkpt>
      <trkpt lat="46.75589" lon="0.91142">
        <ele>79</ele>
        <time>2021-05-19T20:06:22Z</time>
      </trkpt>
      <trkpt lat="46.75588" lon="0.91095">
        <ele>80</ele>
        <time>2021-05-19T20:06:28Z</time>
      </trkpt>
      <trkpt lat="46.75599" lon="0.91059">
        <ele>80</ele>
        <time>2021-05-19T20:06:32Z</time>
      </trkpt>
      <trkpt lat="46.7563" lon="0.91027">
        <ele>80</ele>
        <time>2021-05-19T20:06:39Z</time>
      </trkpt>
      <trkpt lat="46.75679" lon="0.9103">
        <ele>80</ele>
        <time>2021-05-19T20:06:48Z</time>
      </trkpt>
      <trkpt lat="46.75718" lon="0.91041">
        <ele>79</ele>
        <time>2021-05-19T20:06:55Z</time>
      </trkpt>
      <trkpt lat="46.75739" lon="0.91018">
        <ele>80</ele>
        <time>2021-05-19T20:07:00Z</time>
      </trkpt>
      <trkpt lat="46.75777" lon="0.91035">
        <ele>77</ele>
        <time>2021-05-19T20:07:07Z</time>
      </trkpt>
      <trkpt lat="46.75828" lon="0.90833">
        <ele>76</ele>
        <time>2021-05-19T20:07:33Z</time>
      </trkpt>
      <trkpt lat="46.75826" lon="0.90778">
        <ele>76</ele>
        <time>2021-05-19T20:07:40Z</time>
      </trkpt>
      <trkpt lat="46.75834" lon="0.9074">
        <ele>76</ele>
        <time>2021-05-19T20:07:45Z</time>
      </trkpt>
      <trkpt lat="46.75886" lon="0.90629">
        <ele>75</ele>
        <time>2021-05-19T20:08:01Z</time>
      </trkpt>
      <trkpt lat="46.75883" lon="0.90581">
        <ele>76</ele>
        <time>2021-05-19T20:08:07Z</time>
      </trkpt>
      <trkpt lat="46.75855" lon="0.90548">
        <ele>77</ele>
        <time>2021-05-19T20:08:13Z</time>
      </trkpt>
      <trkpt lat="46.75784" lon="0.90473">
        <ele>81</ele>
        <time>2021-05-19T20:08:29Z</time>
      </trkpt>
      <trkpt lat="46.75779" lon="0.9044">
        <ele>81</ele>
        <time>2021-05-19T20:08:33Z</time>
      </trkpt>
      <trkpt lat="46.75789" lon="0.90385">
        <ele>80</ele>
        <time>2021-05-19T20:08:40Z</time>
      </trkpt>
      <trkpt lat="46.75933" lon="0.90051">
        <ele>80</ele>
        <time>2021-05-19T20:09:28Z</time>
      </trkpt>
      <trkpt lat="46.76008" lon="0.89781">
        <ele>78</ele>
        <time>2021-05-19T20:10:03Z</time>
      </trkpt>
      <trkpt lat="46.76064" lon="0.89692">
        <ele>76</ele>
        <time>2021-05-19T20:10:18Z</time>
      </trkpt>
      <trkpt lat="46.76103" lon="0.89589">
        <ele>77</ele>
        <time>2021-05-19T20:10:33Z</time>
      </trkpt>
      <trkpt lat="46.76133" lon="0.89496">
        <ele>79</ele>
        <time>2021-05-19T20:10:45Z</time>
      </trkpt>
      <trkpt lat="46.76177" lon="0.89455">
        <ele>80</ele>
        <time>2021-05-19T20:10:54Z</time>
      </trkpt>
      <trkpt lat="46.76237" lon="0.89402">
        <ele>80</ele>
        <time>2021-05-19T20:11:07Z</time>
      </trkpt>
      <trkpt lat="46.76347" lon="0.89372">
        <ele>79</ele>
        <time>2021-05-19T20:11:27Z</time>
      </trkpt>
      <trkpt lat="46.76479" lon="0.89293">
        <ele>81</ele>
        <time>2021-05-19T20:11:52Z</time>
      </trkpt>
      <trkpt lat="46.76631" lon="0.892">
        <ele>81</ele>
        <time>2021-05-19T20:12:21Z</time>
      </trkpt>
      <trkpt lat="46.76737" lon="0.89214">
        <ele>78</ele>
        <time>2021-05-19T20:12:40Z</time>
      </trkpt>
      <trkpt lat="46.76749" lon="0.89036">
        <ele>78</ele>
        <time>2021-05-19T20:13:02Z</time>
      </trkpt>
      <trkpt lat="46.76747" lon="0.88845">
        <ele>77</ele>
        <time>2021-05-19T20:13:25Z</time>
      </trkpt>
      <trkpt lat="46.76737" lon="0.88728">
        <ele>78</ele>
        <time>2021-05-19T20:13:40Z</time>
      </trkpt>
      <trkpt lat="46.76727" lon="0.88633">
        <ele>82</ele>
        <time>2021-05-19T20:13:52Z</time>
      </trkpt>
      <trkpt lat="46.76744" lon="0.88558">
        <ele>85</ele>
        <time>2021-05-19T20:14:01Z</time>
      </trkpt>
      <trkpt lat="46.76796" lon="0.88511">
        <ele>86</ele>
        <time>2021-05-19T20:14:12Z</time>
      </trkpt>
      <trkpt lat="46.76851" lon="0.88449">
        <ele>88</ele>
        <time>2021-05-19T20:14:24Z</time>
      </trkpt>
      <trkpt lat="46.76907" lon="0.88369">
        <ele>90</ele>
        <time>2021-05-19T20:14:38Z</time>
      </trkpt>
      <trkpt lat="46.76976" lon="0.88247">
        <ele>92</ele>
        <time>2021-05-19T20:14:58Z</time>
      </trkpt>
      <trkpt lat="46.77001" lon="0.88181">
        <ele>94</ele>
        <time>2021-05-19T20:15:07Z</time>
      </trkpt>
      <trkpt lat="46.77007" lon="0.88077">
        <ele>96</ele>
        <time>2021-05-19T20:15:20Z</time>
      </trkpt>
      <trkpt lat="46.77033" lon="0.88032">
        <ele>96</ele>
        <time>2021-05-19T20:15:27Z</time>
      </trkpt>
      <trkpt lat="46.77053" lon="0.87974">
        <ele>96</ele>
        <time>2021-05-19T20:15:35Z</time>
      </trkpt>
      <trkpt lat="46.77081" lon="0.87927">
        <ele>95</ele>
        <time>2021-05-19T20:15:42Z</time>
      </trkpt>
      <trkpt lat="46.77118" lon="0.87911">
        <ele>94</ele>
        <time>2021-05-19T20:15:49Z</time>
      </trkpt>
      <trkpt lat="46.77171" lon="0.87897">
        <ele>91</ele>
        <time>2021-05-19T20:15:59Z</time>
      </trkpt>
      <trkpt lat="46.77222" lon="0.87841">
        <ele>84</ele>
        <time>2021-05-19T20:16:10Z</time>
      </trkpt>
      <trkpt lat="46.77282" lon="0.87716">
        <ele>78</ele>
        <time>2021-05-19T20:16:29Z</time>
      </trkpt>
      <trkpt lat="46.77397" lon="0.87348">
        <ele>62</ele>
        <time>2021-05-19T20:17:18Z</time>
      </trkpt>
      <trkpt lat="46.77523" lon="0.87017">
        <ele>62</ele>
        <time>2021-05-19T20:18:04Z</time>
      </trkpt>
      <trkpt lat="46.7765" lon="0.86801">
        <ele>60</ele>
        <time>2021-05-19T20:18:39Z</time>
      </trkpt>
      <trkpt lat="46.77893" lon="0.8638">
        <ele>62</ele>
        <time>2021-05-19T20:19:46Z</time>
      </trkpt>
      <trkpt lat="46.77919" lon="0.86345">
        <ele>62</ele>
        <time>2021-05-19T20:19:52Z</time>
      </trkpt>
      <trkpt lat="46.77954" lon="0.86352">
        <ele>62</ele>
        <time>2021-05-19T20:19:58Z</time>
      </trkpt>
      <trkpt lat="46.7804" lon="0.86405">
        <ele>64</ele>
        <time>2021-05-19T20:20:15Z</time>
      </trkpt>
      <trkpt lat="46.78165" lon="0.8648">
        <ele>62</ele>
        <time>2021-05-19T20:20:39Z</time>
      </trkpt>
      <trkpt lat="46.78179" lon="0.86531">
        <ele>61</ele>
        <time>2021-05-19T20:20:46Z</time>
      </trkpt>
      <trkpt lat="46.78185" lon="0.86829">
        <ele>59</ele>
        <time>2021-05-19T20:21:22Z</time>
      </trkpt>
      <trkpt lat="46.78188" lon="0.86894">
        <ele>59</ele>
        <time>2021-05-19T20:21:30Z</time>
      </trkpt>
      <trkpt lat="46.78211" lon="0.86926">
        <ele>60</ele>
        <time>2021-05-19T20:21:36Z</time>
      </trkpt>
      <trkpt lat="46.78255" lon="0.86944">
        <ele>60</ele>
        <time>2021-05-19T20:21:44Z</time>
      </trkpt>
      <trkpt lat="46.78487" lon="0.8699">
        <ele>70</ele>
        <time>2021-05-19T20:22:25Z</time>
      </trkpt>
      <trkpt lat="46.78518" lon="0.87014">
        <ele>72</ele>
        <time>2021-05-19T20:22:32Z</time>
      </trkpt>
      <trkpt lat="46.78561" lon="0.87023">
        <ele>73</ele>
        <time>2021-05-19T20:22:39Z</time>
      </trkpt>
      <trkpt lat="46.78619" lon="0.86628">
        <ele>68</ele>
        <time>2021-05-19T20:23:29Z</time>
      </trkpt>
      <trkpt lat="46.78656" lon="0.86507">
        <ele>66</ele>
        <time>2021-05-19T20:23:45Z</time>
      </trkpt>
      <trkpt lat="46.78702" lon="0.86364">
        <ele>67</ele>
        <time>2021-05-19T20:24:04Z</time>
      </trkpt>
      <trkpt lat="46.78806" lon="0.86144">
        <ele>69</ele>
        <time>2021-05-19T20:24:37Z</time>
      </trkpt>
      <trkpt lat="46.78883" lon="0.85829">
        <ele>69</ele>
        <time>2021-05-19T20:25:17Z</time>
      </trkpt>
      <trkpt lat="46.78875" lon="0.85615">
        <ele>67</ele>
        <time>2021-05-19T20:25:43Z</time>
      </trkpt>
      <trkpt lat="46.78782" lon="0.85574">
        <ele>63</ele>
        <time>2021-05-19T20:26:01Z</time>
      </trkpt>
      <trkpt lat="46.78745" lon="0.85685">
        <ele>64</ele>
        <time>2021-05-19T20:26:16Z</time>
      </trkpt>
    </trkseg>
  </trk>
</gpx>